Time;durP1;ratioP1;P1;durP2;ratioP2;P2;SDS_P1;SDS_P2;PMS_P1;PMS_P2;Temp;Humidity;BMP_temperature;BMP_pressure;BME280_temperature;BME280_humidity;BME280_pressure;Samples;Min_cycle;Max_cycle;Signal;HPM_P1;HPM_P2
2022/05/13 03:01:32;;;;;;;0.77;0.77;;;20.00;81.50;;;;;;5603060;23;20517;-69
2022/05/13 03:03:59;;;;;;;0.80;0.80;;;20.00;81.90;;;;;;4997182;28;20544;-70
2022/05/13 03:06:27;;;;;;;0.70;0.70;;;20.00;82.00;;;;;;4997192;28;20444;-68
2022/05/13 03:08:54;;;;;;;0.90;0.90;;;20.00;81.80;;;;;;4997207;28;20600;-69
2022/05/13 03:11:22;;;;;;;1.03;1.03;;;20.10;81.90;;;;;;4997017;28;20524;-69
2022/05/13 03:13:49;;;;;;;1.53;0.80;;;20.00;81.60;;;;;;4996612;28;20884;-70
2022/05/13 03:16:19;;;;;;;0.80;0.80;;;20.10;81.50;;;;;;4998253;28;20541;-69
2022/05/13 03:18:48;;;;;;;0.80;0.80;;;20.10;81.70;;;;;;4996626;28;20456;-70
2022/05/13 03:21:16;;;;;;;0.80;0.80;;;20.10;81.50;;;;;;4996845;28;20464;-70
2022/05/13 03:23:43;;;;;;;0.60;0.60;;;20.10;81.50;;;;;;4997848;28;20445;-70
2022/05/13 03:26:10;;;;;;;1.53;0.90;;;20.10;81.60;;;;;;4997189;28;20449;-69
2022/05/13 03:28:37;;;;;;;0.70;0.70;;;20.10;81.40;;;;;;4996529;28;20936;-69
2022/05/13 03:31:04;;;;;;;0.80;0.80;;;20.10;81.60;;;;;;4996673;28;20531;-69
2022/05/13 03:33:31;;;;;;;0.70;0.70;;;20.00;81.50;;;;;;4996754;28;20768;-69
2022/05/13 03:35:59;;;;;;;0.70;0.70;;;19.90;81.40;;;;;;4996682;28;20453;-69
2022/05/13 03:38:26;;;;;;;0.70;0.70;;;19.80;81.70;;;;;;4996648;28;20832;-70
2022/05/13 03:40:53;;;;;;;0.80;0.80;;;19.80;81.90;;;;;;4996592;28;20464;-70
2022/05/13 03:43:19;;;;;;;1.10;0.70;;;19.80;82.20;;;;;;4996502;28;20449;-70
2022/05/13 03:45:47;;;;;;;0.80;0.80;;;19.80;82.40;;;;;;4996404;28;20449;-70
2022/05/13 03:48:13;;;;;;;0.70;0.70;;;19.80;82.50;;;;;;4996094;28;21057;-70
2022/05/13 03:50:44;;;;;;;0.70;0.70;;;19.80;82.20;;;;;;4996408;28;20445;-69
2022/05/13 03:53:12;;;;;;;0.90;0.90;;;19.80;82.20;;;;;;4996316;28;20444;-69
2022/05/13 03:55:38;;;;;;;0.70;0.70;;;19.80;82.20;;;;;;4996455;28;20664;-69
2022/05/13 03:58:06;;;;;;;0.80;0.80;;;19.80;81.80;;;;;;4996305;28;20445;-70
2022/05/13 04:00:33;;;;;;;0.80;0.70;;;19.60;82.10;;;;;;4996063;28;20472;-71
2022/05/13 04:03:00;;;;;;;0.80;0.70;;;19.50;82.60;;;;;;4996273;28;20441;-70
2022/05/13 04:10:57;;;;;;;1.00;0.87;;;19.50;82.50;;;;;;4996099;28;20524;-70
2022/05/13 04:16:08;;;;;;;0.90;0.90;;;19.50;82.50;;;;;;4996682;28;20529;-71
2022/05/13 04:18:38;;;;;;;0.97;0.87;;;19.50;82.30;;;;;;4996369;28;20925;-70
2022/05/13 04:21:07;;;;;;;1.27;0.80;;;19.30;82.30;;;;;;4996901;28;20473;-70
2022/05/13 04:23:37;;;;;;;0.70;0.70;;;19.30;83.00;;;;;;4996756;28;20861;-71
2022/05/13 04:26:04;;;;;;;0.80;0.70;;;19.40;83.10;;;;;;4997062;28;20500;-71
2022/05/13 04:28:31;;;;;;;0.80;0.80;;;19.40;83.10;;;;;;4996881;28;20448;-69
2022/05/13 04:30:59;;;;;;;0.80;0.80;;;19.20;83.30;;;;;;4996687;28;20471;-69
2022/05/13 04:33:26;;;;;;;0.87;0.87;;;19.10;83.80;;;;;;4996443;28;20527;-69
2022/05/13 04:35:53;;;;;;;1.00;0.90;;;19.00;84.00;;;;;;4996602;28;20453;-71
2022/05/13 04:38:20;;;;;;;0.80;0.80;;;19.00;84.20;;;;;;4996273;28;20441;-71
2022/05/13 04:40:49;;;;;;;1.10;1.10;;;19.10;84.30;;;;;;4996275;28;20988;-71
2022/05/13 04:43:14;;;;;;;0.70;0.70;;;19.10;84.00;;;;;;4996626;28;20847;-71
2022/05/13 04:45:42;;;;;;;0.80;0.80;;;19.10;83.50;;;;;;4996589;28;20528;-69
2022/05/13 04:48:16;;;;;;;0.80;0.80;;;19.30;83.30;;;;;;4996530;28;20210;-71
2022/05/13 04:50:46;;;;;;;0.90;0.90;;;19.30;83.10;;;;;;4996597;28;20470;-70
2022/05/13 04:53:13;;;;;;;0.90;0.90;;;19.30;83.30;;;;;;4996430;28;20489;-70
2022/05/13 04:55:40;;;;;;;0.87;0.87;;;19.40;83.10;;;;;;4996526;28;20449;-71
2022/05/13 04:58:08;;;;;;;0.80;0.80;;;19.30;83.30;;;;;;4995839;28;20544;-71
2022/05/13 05:00:36;;;;;;;0.70;0.70;;;19.20;83.30;;;;;;4995002;28;20445;-70
2022/05/13 05:03:02;;;;;;;0.77;0.77;;;19.30;83.40;;;;;;4995186;28;20437;-70
2022/05/13 05:05:29;;;;;;;0.90;0.80;;;19.40;83.30;;;;;;4995063;28;20441;-70
2022/05/13 05:07:56;;;;;;;0.90;0.90;;;19.40;83.10;;;;;;4994737;28;20460;-70
2022/05/13 05:10:23;;;;;;;0.80;0.80;;;19.40;83.00;;;;;;4994972;28;20472;-71
2022/05/13 05:12:53;;;;;;;1.57;0.80;;;19.50;82.90;;;;;;4994969;28;20476;-70
2022/05/13 05:15:22;;;;;;;0.90;0.90;;;19.60;82.50;;;;;;4994803;28;20481;-70
2022/05/13 05:17:48;;;;;;;0.80;0.80;;;19.60;82.30;;;;;;4994781;28;20453;-70
2022/05/13 05:20:15;;;;;;;1.03;0.90;;;19.60;82.30;;;;;;4995348;28;20452;-71
2022/05/13 05:22:44;;;;;;;0.80;0.80;;;19.60;82.30;;;;;;4995978;28;20500;-70
2022/05/13 05:25:12;;;;;;;0.83;0.83;;;19.60;82.60;;;;;;4995141;28;20870;-70
2022/05/13 05:27:38;;;;;;;0.90;0.90;;;19.70;82.50;;;;;;4994782;28;20536;-69
2022/05/13 05:30:07;;;;;;;0.80;0.80;;;19.70;82.50;;;;;;4994748;28;20457;-69
2022/05/13 05:32:36;;;;;;;0.90;0.90;;;19.70;81.80;;;;;;4994301;28;20527;-70
2022/05/13 05:35:04;;;;;;;0.90;0.90;;;19.60;82.30;;;;;;4994552;28;20476;-70
2022/05/13 05:37:30;;;;;;;0.80;0.80;;;19.70;82.00;;;;;;4994669;28;20532;-69
2022/05/13 05:39:57;;;;;;;0.80;0.80;;;19.70;82.00;;;;;;4994534;28;20449;-70
2022/05/13 05:42:24;;;;;;;0.90;0.80;;;19.70;82.30;;;;;;4994598;28;20468;-71
2022/05/13 05:44:50;;;;;;;0.77;0.77;;;19.80;82.30;;;;;;4994598;28;20445;-71
2022/05/13 05:47:21;;;;;;;0.80;0.80;;;19.90;81.40;;;;;;4994696;28;20511;-70
2022/05/13 05:49:49;;;;;;;1.40;0.90;;;19.90;81.20;;;;;;4994743;28;20624;-70
2022/05/13 05:52:16;;;;;;;1.00;0.90;;;20.00;80.90;;;;;;4994428;28;20461;-70
2022/05/13 05:57:27;;;;;;;0.80;0.80;;;20.00;80.40;;;;;;4994407;28;20920;-70
2022/05/13 05:59:54;;;;;;;0.90;0.90;;;20.10;80.30;;;;;;4994536;28;20449;-71
2022/05/13 06:02:21;;;;;;;0.90;0.90;;;20.10;80.20;;;;;;4993828;28;20484;-70
2022/05/13 06:04:49;;;;;;;0.90;0.90;;;20.10;80.30;;;;;;4994117;28;20495;-71
2022/05/13 06:07:17;;;;;;;1.40;0.73;;;20.00;80.40;;;;;;4994131;28;20485;-70
2022/05/13 06:09:44;;;;;;;0.80;0.80;;;20.10;80.60;;;;;;4994130;28;20869;-70
2022/05/13 06:12:13;;;;;;;1.00;0.90;;;20.10;79.30;;;;;;4993738;28;21035;-71
2022/05/13 06:14:39;;;;;;;0.70;0.70;;;20.10;79.30;;;;;;4994041;28;20488;-70
2022/05/13 06:17:07;;;;;;;1.20;0.77;;;20.10;79.60;;;;;;4994010;28;20866;-70
2022/05/13 06:19:34;;;;;;;0.80;0.80;;;20.10;79.70;;;;;;4993619;28;21003;-70
2022/05/13 06:22:02;;;;;;;0.80;0.80;;;20.00;79.30;;;;;;4993813;28;20527;-71
2022/05/13 06:24:29;;;;;;;0.80;0.80;;;20.00;79.40;;;;;;4993754;28;20449;-70
2022/05/13 06:26:56;;;;;;;0.70;0.70;;;20.00;79.60;;;;;;4993813;28;20445;-70
2022/05/13 06:29:25;;;;;;;0.70;0.70;;;20.00;79.90;;;;;;4994177;28;20504;-69
2022/05/13 06:31:52;;;;;;;1.37;0.73;;;20.10;79.50;;;;;;4993648;28;20476;-70
2022/05/13 06:34:19;;;;;;;0.80;0.80;;;20.10;79.00;;;;;;4993891;28;20833;-71
2022/05/13 06:36:46;;;;;;;0.80;0.80;;;20.10;78.80;;;;;;4993984;28;20449;-70
2022/05/13 06:39:14;;;;;;;1.10;1.00;;;20.20;78.70;;;;;;4993708;28;20456;-70
2022/05/13 06:41:41;;;;;;;1.03;0.97;;;20.30;78.70;;;;;;4993674;28;20470;-69
2022/05/13 06:44:09;;;;;;;1.00;0.90;;;20.30;78.10;;;;;;4993680;28;20441;-70
2022/05/13 06:46:38;;;;;;;0.70;0.70;;;20.30;77.80;;;;;;4993344;28;20881;-69
2022/05/13 06:49:05;;;;;;;1.50;0.70;;;20.20;76.90;;;;;;4993356;28;20453;-70
2022/05/13 06:51:33;;;;;;;0.80;0.70;;;20.20;77.20;;;;;;4993334;28;20464;-69
2022/05/13 06:54:03;;;;;;;0.80;0.70;;;20.10;77.60;;;;;;4993113;28;20940;-70
2022/05/13 06:56:32;;;;;;;0.80;0.80;;;20.10;77.40;;;;;;4993727;28;20477;-71
2022/05/13 06:58:58;;;;;;;0.80;0.80;;;20.10;77.80;;;;;;4993138;28;20457;-70
2022/05/13 07:01:25;;;;;;;0.80;0.80;;;20.20;78.30;;;;;;4992751;28;20571;-69
2022/05/13 07:03:52;;;;;;;1.03;0.80;;;20.20;78.10;;;;;;4992886;28;20964;-71
2022/05/13 07:06:19;;;;;;;1.47;0.80;;;20.20;77.70;;;;;;4995499;28;20441;-70
2022/05/13 07:08:46;;;;;;;0.80;0.80;;;20.10;77.90;;;;;;4995804;28;20476;-70
2022/05/13 07:11:13;;;;;;;0.70;0.60;;;20.10;78.10;;;;;;4996026;28;20468;-70
2022/05/13 07:13:41;;;;;;;0.93;0.80;;;20.10;77.60;;;;;;4995838;28;20544;-70
2022/05/13 07:16:08;;;;;;;0.80;0.80;;;20.10;77.50;;;;;;4995729;28;20484;-71
2022/05/13 07:18:36;;;;;;;0.80;0.80;;;20.10;77.30;;;;;;4995590;28;20830;-69
2022/05/13 07:21:03;;;;;;;1.40;0.80;;;20.00;76.60;;;;;;4995400;28;20471;-70
2022/05/13 07:23:30;;;;;;;0.77;0.77;;;20.00;77.60;;;;;;4995773;28;20452;-69
2022/05/13 07:25:58;;;;;;;0.80;0.80;;;19.90;76.90;;;;;;4995521;28;20444;-71
2022/05/13 07:28:26;;;;;;;1.20;0.70;;;19.90;77.50;;;;;;4995782;28;20481;-70
2022/05/13 07:30:54;;;;;;;1.20;0.80;;;19.90;77.40;;;;;;4995689;28;20509;-71
2022/05/13 07:33:21;;;;;;;1.23;0.70;;;19.90;77.60;;;;;;4995789;28;20449;-72
2022/05/13 07:35:48;;;;;;;0.70;0.63;;;20.00;77.10;;;;;;4995844;28;20508;-71
2022/05/13 07:38:15;;;;;;;0.87;0.87;;;20.00;77.30;;;;;;4995714;28;20504;-70
2022/05/13 07:43:26;;;;;;;0.80;0.80;;;19.90;76.90;;;;;;4992548;28;20468;-71
2022/05/13 07:45:54;;;;;;;0.80;0.80;;;19.90;77.40;;;;;;4995954;28;20979;-70
2022/05/13 07:48:21;;;;;;;0.80;0.70;;;19.90;78.00;;;;;;4996087;28;20473;-70
2022/05/13 07:50:48;;;;;;;0.87;0.87;;;19.90;77.40;;;;;;4996093;28;20576;-70
2022/05/13 07:53:14;;;;;;;0.90;0.80;;;20.00;78.20;;;;;;4996048;28;20547;-70
2022/05/13 07:55:41;;;;;;;1.30;0.80;;;19.90;77.40;;;;;;4995603;28;20965;-70
2022/05/13 07:58:08;;;;;;;0.87;0.80;;;19.90;77.60;;;;;;4995539;28;21009;-71
2022/05/13 08:00:36;;;;;;;0.80;0.80;;;19.90;77.40;;;;;;4995376;28;20449;-71
2022/05/13 08:03:05;;;;;;;0.80;0.70;;;19.90;78.20;;;;;;4995774;28;20499;-71
2022/05/13 08:05:36;;;;;;;0.97;0.87;;;20.00;78.20;;;;;;4995856;28;20452;-71
2022/05/13 08:08:07;;;;;;;0.70;0.70;;;20.00;78.00;;;;;;4995461;28;20445;-71
2022/05/13 08:10:34;;;;;;;1.00;0.80;;;20.10;77.90;;;;;;4995652;28;20437;-71
2022/05/13 08:13:01;;;;;;;0.87;0.70;;;20.10;78.00;;;;;;4995504;28;20504;-71
2022/05/13 08:15:28;;;;;;;1.07;0.93;;;20.20;77.50;;;;;;4995561;28;20496;-71
2022/05/13 08:17:55;;;;;;;0.80;0.80;;;20.20;77.00;;;;;;4995230;28;20452;-71
2022/05/13 08:20:23;;;;;;;0.70;0.70;;;20.30;75.90;;;;;;4995458;28;20499;-71
2022/05/13 08:22:50;;;;;;;2.20;0.90;;;20.40;74.40;;;;;;4995264;28;20456;-71
2022/05/13 08:25:17;;;;;;;1.00;0.80;;;20.50;74.20;;;;;;4995401;28;20818;-71
2022/05/13 08:27:44;;;;;;;0.90;0.80;;;20.50;72.80;;;;;;4995517;28;20495;-71
2022/05/13 08:30:12;;;;;;;0.80;0.80;;;20.50;73.20;;;;;;4994835;28;20951;-71
2022/05/13 08:32:39;;;;;;;1.17;0.87;;;20.50;73.40;;;;;;4995268;28;20469;-70
2022/05/13 08:35:06;;;;;;;1.37;0.90;;;20.50;72.40;;;;;;4995294;28;20579;-71
2022/05/13 08:37:40;;;;;;;1.50;1.13;;;20.50;71.90;;;;;;4995148;28;20453;-71
2022/05/13 08:40:13;;;;;;;0.80;0.77;;;20.60;72.30;;;;;;4995213;28;20579;-71
2022/05/13 08:42:45;;;;;;;0.80;0.80;;;20.70;72.40;;;;;;4995118;28;20504;-70
2022/05/13 08:45:13;;;;;;;1.00;0.90;;;20.80;71.40;;;;;;4994977;28;20429;-71
2022/05/13 08:47:49;;;;;;;1.10;0.90;;;20.80;71.40;;;;;;4995530;28;20445;-70
2022/05/13 08:50:22;;;;;;;1.47;0.90;;;20.70;70.10;;;;;;4995035;28;20972;-70
2022/05/13 08:53:08;;;;;;;0.80;0.70;;;20.80;70.00;;;;;;4994984;28;20444;-70
2022/05/13 08:55:38;;;;;;;0.93;0.87;;;20.90;69.70;;;;;;4994490;28;20561;-71
2022/05/13 08:58:08;;;;;;;0.90;0.80;;;21.00;69.90;;;;;;4994744;28;20445;-71
2022/05/13 09:00:37;;;;;;;1.00;0.80;;;21.00;69.30;;;;;;4994525;28;20536;-71
2022/05/13 09:03:10;;;;;;;0.70;0.70;;;21.00;70.30;;;;;;4994528;28;20496;-71
2022/05/13 09:05:42;;;;;;;1.10;1.00;;;21.10;71.40;;;;;;4994672;28;20499;-71
2022/05/13 09:08:11;;;;;;;1.00;0.90;;;21.50;71.60;;;;;;4995176;28;20438;-71
2022/05/13 09:10:49;;;;;;;0.90;0.80;;;21.90;67.90;;;;;;4994542;28;20449;-71
2022/05/13 09:13:25;;;;;;;0.90;0.80;;;21.80;65.20;;;;;;4994260;28;20909;-70
2022/05/13 09:15:55;;;;;;;1.30;0.73;;;22.00;67.70;;;;;;5113385;23;20463;-73
2022/05/13 09:18:30;;;;;;;1.00;0.90;;;22.30;65.70;;;;;;4995428;28;20429;-71
2022/05/13 09:20:59;;;;;;;0.70;0.67;;;22.10;63.10;;;;;;4995520;28;20428;-71
2022/05/13 09:23:28;;;;;;;0.70;0.67;;;22.00;63.30;;;;;;4995335;28;20794;-70
2022/05/13 09:26:05;;;;;;;0.90;0.80;;;21.80;63.20;;;;;;4995249;28;20461;-71
2022/05/13 09:28:33;;;;;;;0.90;0.80;;;21.80;64.90;;;;;;4995178;28;20425;-71
2022/05/13 09:31:19;;;;;;;0.90;0.80;;;21.80;63.90;;;;;;4995350;28;20534;-70
2022/05/13 09:33:47;;;;;;;0.70;0.60;;;21.70;66.30;;;;;;4995787;28;20840;-72
2022/05/13 09:36:35;;;;;;;1.37;0.73;;;21.80;64.70;;;;;;4994916;28;20543;-72
2022/05/13 09:39:20;;;;;;;0.80;0.80;;;21.90;64.40;;;;;;4995010;28;20513;-72
2022/05/13 09:41:48;;;;;;;0.70;0.60;;;22.00;64.80;;;;;;4995645;28;20453;-71
2022/05/13 09:44:21;;;;;;;0.90;0.80;;;22.00;65.20;;;;;;4995664;28;20453;-71
2022/05/13 09:46:50;;;;;;;1.43;0.70;;;21.90;63.40;;;;;;4994879;28;20846;-72
2022/05/13 09:49:25;;;;;;;0.70;0.60;;;21.80;63.70;;;;;;4994511;28;20940;-72
2022/05/13 09:51:55;;;;;;;0.80;0.80;;;21.80;64.20;;;;;;4994776;28;20421;-72
2022/05/13 09:54:27;;;;;;;0.70;0.70;;;21.90;63.00;;;;;;4995285;28;20440;-72
2022/05/13 09:56:56;;;;;;;0.70;0.60;;;21.90;64.90;;;;;;4994705;28;20512;-72
2022/05/13 09:59:25;;;;;;;1.03;0.70;;;22.00;65.80;;;;;;4994326;28;20532;-72
2022/05/13 10:01:52;;;;;;;0.97;0.60;;;21.90;64.40;;;;;;4994690;28;20472;-72
2022/05/13 10:04:22;;;;;;;0.90;0.70;;;21.60;63.20;;;;;;4994585;28;20453;-72
2022/05/13 10:06:48;;;;;;;0.70;0.70;;;21.60;64.60;;;;;;4993890;28;20468;-72
2022/05/13 10:15:10;;;;;;;0.80;0.80;;;21.20;65.50;;;;;;4994415;28;20829;-72
2022/05/13 10:17:49;;;;;;;0.80;0.70;;;21.10;65.00;;;;;;4994039;28;20516;-72
2022/05/13 10:20:26;;;;;;;1.10;0.83;;;21.10;64.80;;;;;;4994260;28;20457;-72
2022/05/13 10:22:58;;;;;;;0.80;0.70;;;21.20;64.40;;;;;;4994463;28;20532;-73
2022/05/13 10:25:31;;;;;;;0.73;0.63;;;21.10;64.20;;;;;;4994380;28;20429;-73
2022/05/13 10:28:02;;;;;;;0.90;0.70;;;21.10;65.70;;;;;;4994924;28;20441;-73
2022/05/13 10:30:35;;;;;;;0.97;0.80;;;20.90;65.30;;;;;;4994338;28;20500;-73
2022/05/13 10:33:07;;;;;;;0.80;0.60;;;21.10;67.30;;;;;;4994553;28;20430;-74
2022/05/13 10:35:42;;;;;;;0.90;0.70;;;21.30;65.90;;;;;;4994193;28;20475;-74
2022/05/13 10:38:13;;;;;;;1.43;0.70;;;21.40;65.50;;;;;;4994045;28;20909;-74
2022/05/13 10:40:43;;;;;;;0.77;0.60;;;21.50;63.80;;;;;;4994284;28;20445;-73
2022/05/13 10:43:15;;;;;;;0.80;0.60;;;21.50;63.00;;;;;;4993898;28;20901;-74
2022/05/13 10:45:43;;;;;;;0.73;0.70;;;21.70;63.80;;;;;;4994047;28;20505;-73
2022/05/13 10:48:21;;;;;;;0.70;0.63;;;21.90;63.20;;;;;;4994347;28;20452;-73
2022/05/13 10:50:57;;;;;;;0.80;0.70;;;22.00;63.50;;;;;;4994180;28;20433;-74
2022/05/13 10:53:33;;;;;;;0.70;0.70;;;22.10;63.60;;;;;;4993952;28;20900;-73
2022/05/13 10:56:15;;;;;;;0.97;0.70;;;22.10;63.10;;;;;;4994086;28;20539;-73
2022/05/13 10:58:49;;;;;;;0.80;0.70;;;21.90;63.60;;;;;;4994456;28;20507;-73
2022/05/13 11:01:28;;;;;;;0.87;0.80;;;22.00;63.40;;;;;;4994905;28;20935;-73
2022/05/13 11:04:00;;;;;;;0.90;0.70;;;22.10;63.90;;;;;;5002350;28;20441;-73
2022/05/13 11:06:42;;;;;;;0.80;0.70;;;22.00;61.70;;;;;;5004680;28;20545;-73
2022/05/13 11:09:18;;;;;;;0.90;0.77;;;22.00;63.50;;;;;;5003557;28;20429;-75
2022/05/13 11:11:47;;;;;;;0.90;0.70;;;21.90;62.60;;;;;;5005427;28;20796;-73
2022/05/13 11:14:36;;;;;;;0.70;0.70;;;22.00;62.80;;;;;;5004548;28;20449;-73
2022/05/13 11:17:14;;;;;;;0.67;0.60;;;22.10;64.70;;;;;;5004355;28;20493;-75
2022/05/13 11:19:49;;;;;;;1.03;0.70;;;22.20;64.00;;;;;;5008211;28;20433;-74
2022/05/13 11:22:26;;;;;;;0.70;0.60;;;22.30;63.20;;;;;;5009490;28;20436;-74
2022/05/13 11:27:57;;;;;;;1.10;0.70;;;22.70;61.60;;;;;;5009117;28;20500;-73
2022/05/13 11:30:33;;;;;;;0.73;0.60;;;22.90;60.90;;;;;;5009038;28;20429;-73
2022/05/13 11:33:03;;;;;;;0.70;0.60;;;22.90;63.10;;;;;;5008752;28;20449;-74
2022/05/13 11:35:41;;;;;;;0.80;0.80;;;23.00;59.40;;;;;;5008651;28;20451;-74
2022/05/13 11:38:16;;;;;;;0.60;0.60;;;23.00;60.90;;;;;;5007709;28;20499;-73
2022/05/13 11:40:50;;;;;;;0.80;0.80;;;23.10;62.10;;;;;;5007703;28;20420;-74
2022/05/13 11:43:30;;;;;;;0.90;0.70;;;23.30;60.60;;;;;;4999584;28;20440;-74
2022/05/13 11:46:25;;;;;;;0.80;0.70;;;23.50;60.70;;;;;;4997346;28;20469;-74
2022/05/13 11:48:54;;;;;;;0.70;0.60;;;23.70;60.90;;;;;;4997313;28;20522;-74
2022/05/13 11:51:24;;;;;;;0.80;0.70;;;23.80;60.50;;;;;;4997220;28;20515;-74
2022/05/13 11:53:53;;;;;;;0.70;0.60;;;23.50;59.10;;;;;;4997074;28;20448;-74
2022/05/13 11:56:32;;;;;;;0.80;0.80;;;23.20;59.50;;;;;;4996634;28;20954;-72
2022/05/13 11:59:03;;;;;;;0.90;0.90;;;23.10;60.50;;;;;;4996704;28;20936;-74
2022/05/13 12:01:57;;;;;;;0.70;0.70;;;22.90;59.70;;;;;;4997098;28;20484;-73
2022/05/13 12:04:31;;;;;;;0.80;0.80;;;22.80;61.10;;;;;;4996575;28;20453;-73
2022/05/13 12:07:01;;;;;;;0.70;0.70;;;22.90;60.60;;;;;;4997293;28;20469;-73
2022/05/13 12:09:32;;;;;;;0.70;0.67;;;23.00;60.20;;;;;;4996906;28;20452;-73
2022/05/13 12:12:09;;;;;;;0.80;0.80;;;23.00;60.80;;;;;;4996586;28;20901;-72
2022/05/13 12:14:48;;;;;;;0.90;0.70;;;23.00;60.00;;;;;;4996767;28;20429;-73
2022/05/13 12:17:33;;;;;;;0.80;0.73;;;22.80;60.70;;;;;;4996348;28;20939;-72
2022/05/13 12:20:07;;;;;;;0.70;0.63;;;22.80;62.60;;;;;;4996664;28;20429;-73
2022/05/13 12:22:45;;;;;;;0.80;0.80;;;22.80;60.60;;;;;;4996633;28;20434;-73
2022/05/13 12:25:34;;;;;;;0.83;0.80;;;22.90;60.90;;;;;;4996669;28;20457;-72
2022/05/13 12:28:05;;;;;;;0.70;0.70;;;22.90;61.30;;;;;;4996164;28;20540;-72
2022/05/13 12:30:36;;;;;;;0.87;0.87;;;22.80;61.70;;;;;;4995972;28;20429;-73
2022/05/13 12:33:34;;;;;;;0.70;0.70;;;22.80;60.80;;;;;;4997077;28;20429;-73
2022/05/13 12:39:07;;;;;;;0.70;0.67;;;22.80;59.70;;;;;;4996128;28;20778;-73
2022/05/13 12:41:48;;;;;;;0.77;0.77;;;22.80;61.30;;;;;;4996134;28;20484;-73
2022/05/13 12:44:22;;;;;;;0.80;0.70;;;23.10;60.10;;;;;;4996518;28;20552;-73
2022/05/13 12:46:52;;;;;;;1.30;0.70;;;23.10;59.70;;;;;;4996170;28;20526;-73
2022/05/13 12:49:21;;;;;;;0.80;0.80;;;23.30;59.20;;;;;;4996881;28;20527;-73
2022/05/13 12:52:00;;;;;;;0.70;0.60;;;23.60;58.60;;;;;;4996040;28;20944;-73
2022/05/13 12:54:29;;;;;;;0.83;0.83;;;23.90;57.90;;;;;;4996184;28;20433;-72
2022/05/13 12:57:00;;;;;;;0.60;0.60;;;24.00;55.10;;;;;;4996464;28;20489;-73
2022/05/13 12:59:30;;;;;;;1.57;0.80;;;24.10;56.00;;;;;;4996063;28;20508;-74
2022/05/13 13:02:02;;;;;;;0.83;0.70;;;24.20;54.60;;;;;;4995999;28;20453;-73
2022/05/13 13:04:35;;;;;;;0.70;0.60;;;24.30;55.00;;;;;;4995819;28;20465;-73
2022/05/13 13:07:08;;;;;;;0.60;0.50;;;24.40;55.50;;;;;;4995804;28;20572;-73
2022/05/13 13:09:41;;;;;;;0.70;0.60;;;24.60;55.60;;;;;;4995923;28;20429;-72
2022/05/13 13:12:15;;;;;;;0.70;0.60;;;24.70;53.50;;;;;;4995726;28;20437;-72
2022/05/13 13:14:47;;;;;;;0.70;0.60;;;24.70;52.60;;;;;;4995357;28;20430;-73
2022/05/13 13:17:26;;;;;;;0.70;0.63;;;24.70;54.60;;;;;;4994918;28;20575;-73
2022/05/13 13:19:58;;;;;;;0.70;0.70;;;24.70;53.10;;;;;;4995481;28;20433;-73
2022/05/13 13:22:27;;;;;;;0.63;0.60;;;24.70;53.20;;;;;;4995464;28;20434;-73
2022/05/13 13:24:54;;;;;;;0.67;0.60;;;24.30;53.90;;;;;;4995376;28;20500;-73
2022/05/13 13:27:29;;;;;;;0.70;0.70;;;24.10;54.50;;;;;;4995373;28;20539;-72
2022/05/13 13:29:55;;;;;;;0.80;0.80;;;24.20;53.60;;;;;;4995358;28;20432;-73
2022/05/13 13:32:25;;;;;;;0.70;0.70;;;24.40;53.60;;;;;;4995569;28;20507;-73
2022/05/13 13:34:54;;;;;;;0.70;0.60;;;24.50;55.40;;;;;;4995340;28;20445;-73
2022/05/13 13:37:24;;;;;;;0.70;0.60;;;24.60;52.40;;;;;;4995098;28;20520;-73
2022/05/13 13:39:51;;;;;;;0.80;0.60;;;24.90;53.10;;;;;;4995139;28;20449;-74
2022/05/13 13:42:19;;;;;;;0.70;0.70;;;25.00;52.40;;;;;;4995440;28;20480;-75
2022/05/13 13:44:48;;;;;;;0.70;0.60;;;25.20;53.00;;;;;;4999003;28;20456;-74
2022/05/13 13:47:29;;;;;;;0.70;0.60;;;25.30;51.90;;;;;;4999641;28;20469;-75
2022/05/13 13:49:57;;;;;;;0.80;0.70;;;25.50;50.30;;;;;;4999295;28;20511;-74
2022/05/13 13:52:28;;;;;;;0.70;0.60;;;25.40;51.00;;;;;;5001457;28;20821;-76
2022/05/13 13:54:59;;;;;;;0.70;0.70;;;25.40;50.80;;;;;;5001724;28;20448;-76
2022/05/13 13:57:46;;;;;;;0.70;0.60;;;25.00;50.30;;;;;;5001819;28;20879;-75
2022/05/13 14:00:15;;;;;;;0.70;0.70;;;25.10;52.30;;;;;;5000340;28;20437;-75
2022/05/13 14:02:49;;;;;;;0.63;0.60;;;25.30;52.30;;;;;;4999385;28;20449;-75
2022/05/13 14:05:20;;;;;;;0.70;0.70;;;25.50;51.00;;;;;;4998996;28;20465;-74
2022/05/13 14:07:52;;;;;;;0.70;0.60;;;25.60;49.80;;;;;;4995522;28;20799;-75
2022/05/13 14:10:25;;;;;;;0.70;0.60;;;25.60;49.00;;;;;;4994318;28;20928;-75
2022/05/13 14:12:53;;;;;;;0.80;0.70;;;25.70;50.20;;;;;;4994742;28;20429;-74
2022/05/13 14:15:21;;;;;;;0.70;0.70;;;25.80;49.80;;;;;;4994835;28;20536;-75
2022/05/13 14:17:52;;;;;;;0.70;0.50;;;25.80;50.20;;;;;;4994595;28;20493;-75
2022/05/13 14:20:21;;;;;;;0.97;0.80;;;26.10;48.60;;;;;;4994662;28;20437;-74
2022/05/13 14:23:05;;;;;;;1.50;0.70;;;26.10;49.10;;;;;;4994662;28;20445;-75
2022/05/13 14:25:38;;;;;;;0.60;0.60;;;26.20;47.90;;;;;;4994327;28;20433;-74
2022/05/13 14:28:08;;;;;;;0.70;0.70;;;26.30;47.70;;;;;;4994447;28;20448;-75
2022/05/13 14:30:35;;;;;;;0.70;0.60;;;26.40;51.30;;;;;;4994567;28;20544;-75
2022/05/13 14:33:04;;;;;;;0.60;0.60;;;26.80;48.90;;;;;;4994078;28;20453;-75
2022/05/13 14:35:32;;;;;;;0.73;0.60;;;27.00;48.00;;;;;;4994296;28;20492;-76
2022/05/13 14:38:02;;;;;;;0.70;0.70;;;27.20;47.50;;;;;;4994434;28;20612;-74
2022/05/13 14:40:33;;;;;;;0.67;0.60;;;27.00;45.10;;;;;;4994132;28;20874;-75
2022/05/13 14:43:04;;;;;;;0.70;0.60;;;27.10;48.50;;;;;;4994781;28;20437;-76
2022/05/13 14:45:34;;;;;;;0.70;0.70;;;27.20;48.50;;;;;;4994937;28;20472;-76
2022/05/13 14:48:32;;;;;;;1.47;0.70;;;27.40;47.80;;;;;;4994221;28;20469;-77
2022/05/13 14:51:01;;;;;;;1.20;0.60;;;27.30;46.30;;;;;;4994418;28;20433;-76
2022/05/13 14:53:30;;;;;;;0.60;0.60;;;27.20;47.10;;;;;;4996109;28;20526;-76
2022/05/13 14:55:59;;;;;;;0.70;0.60;;;27.00;47.40;;;;;;4998504;28;20473;-76
2022/05/13 14:58:29;;;;;;;0.70;0.70;;;26.80;46.80;;;;;;4998211;28;20909;-76
2022/05/13 15:01:08;;;;;;;0.70;0.70;;;25.90;47.50;;;;;;4998689;28;20433;-76
2022/05/13 15:03:44;;;;;;;0.70;0.70;;;25.60;48.40;;;;;;4998480;28;20441;-76
2022/05/13 15:06:31;;;;;;;0.80;0.63;;;25.60;49.20;;;;;;4998236;28;20468;-77
2022/05/13 15:09:07;;;;;;;0.80;0.60;;;25.70;48.70;;;;;;4998729;28;20433;-76
2022/05/13 15:11:34;;;;;;;0.93;0.83;;;25.90;50.70;;;;;;4998208;28;20657;-76
2022/05/13 15:14:04;;;;;;;0.60;0.60;;;26.20;48.00;;;;;;4998193;28;20500;-76
2022/05/13 15:16:31;;;;;;;0.70;0.60;;;26.50;47.40;;;;;;5099939;23;20481;-75
2022/05/13 15:18:59;;;;;;;0.70;0.60;;;26.70;47.80;;;;;;4996610;28;20429;-74
2022/05/13 15:21:26;;;;;;;0.63;0.60;;;26.90;46.10;;;;;;4996693;28;20449;-74
2022/05/13 15:23:53;;;;;;;0.80;0.67;;;27.00;46.00;;;;;;4996570;28;20448;-74
2022/05/13 15:26:24;;;;;;;0.80;0.70;;;27.00;47.60;;;;;;4996094;28;20842;-74
2022/05/13 15:28:51;;;;;;;0.70;0.60;;;27.10;45.70;;;;;;4996535;28;20445;-74
2022/05/13 15:31:18;;;;;;;0.83;0.80;;;27.20;45.20;;;;;;4996395;28;20488;-74
2022/05/13 15:33:45;;;;;;;0.80;0.80;;;27.20;44.80;;;;;;4996296;28;20444;-74
2022/05/13 15:36:23;;;;;;;0.97;0.53;;;27.30;44.90;;;;;;4996147;28;20449;-74
2022/05/13 15:38:50;;;;;;;0.60;0.53;;;27.10;46.70;;;;;;4996145;28;20472;-74
2022/05/13 15:41:17;;;;;;;0.60;0.60;;;27.00;45.00;;;;;;4996017;28;21003;-74
2022/05/13 15:43:45;;;;;;;0.70;0.60;;;26.80;45.40;;;;;;4996205;28;20540;-73
2022/05/13 15:46:14;;;;;;;0.70;0.63;;;26.70;45.10;;;;;;4995713;28;20940;-74
2022/05/13 15:48:41;;;;;;;0.70;0.60;;;26.60;46.00;;;;;;4996426;28;20441;-74
2022/05/13 15:53:53;;;;;;;0.60;0.50;;;26.50;46.00;;;;;;4996067;28;20405;-75
2022/05/13 15:56:26;;;;;;;0.73;0.60;;;26.40;46.10;;;;;;4996784;28;20469;-70
2022/05/13 15:58:56;;;;;;;0.80;0.60;;;26.20;46.00;;;;;;4996351;28;20476;-71
2022/05/13 16:01:23;;;;;;;0.90;0.70;;;26.00;46.60;;;;;;4996298;28;20457;-70
2022/05/13 16:03:50;;;;;;;0.77;0.60;;;26.00;46.90;;;;;;4995504;28;20939;-71
2022/05/13 16:06:17;;;;;;;0.60;0.60;;;25.90;47.20;;;;;;4995290;28;20869;-71
2022/05/13 16:08:44;;;;;;;0.70;0.60;;;25.80;45.00;;;;;;4996212;28;20445;-71
2022/05/13 16:11:13;;;;;;;0.70;0.63;;;25.70;46.40;;;;;;4995995;28;20457;-70
2022/05/13 16:13:42;;;;;;;0.80;0.60;;;25.70;45.40;;;;;;4996105;28;20456;-70
2022/05/13 16:16:11;;;;;;;0.77;0.70;;;25.50;45.10;;;;;;4995863;28;20544;-71
2022/05/13 16:18:42;;;;;;;0.70;0.50;;;25.20;45.80;;;;;;4995950;28;20477;-71
2022/05/13 16:21:13;;;;;;;0.80;0.70;;;25.00;45.60;;;;;;4996013;28;20527;-71
2022/05/13 16:23:42;;;;;;;0.70;0.60;;;24.90;45.70;;;;;;4996631;28;20795;-71
2022/05/13 16:26:14;;;;;;;0.70;0.67;;;24.70;46.00;;;;;;4995792;28;20503;-71
2022/05/13 16:28:41;;;;;;;0.70;0.60;;;24.50;46.30;;;;;;4996410;28;20469;-71
2022/05/13 16:31:08;;;;;;;0.70;0.70;;;24.60;47.00;;;;;;4995476;28;20503;-71
2022/05/13 16:33:34;;;;;;;0.67;0.50;;;24.50;46.00;;;;;;4996606;28;20739;-71